Time;durP1;ratioP1;P1;durP2;ratioP2;P2;SDS_P1;SDS_P2;PMS_P1;PMS_P2;Temp;Humidity;BMP_temperature;BMP_pressure;BME280_temperature;BME280_humidity;BME280_pressure;Samples;Min_cycle;Max_cycle;Signal;HPM_P1;HPM_P2
2023/12/25 00:01:38;;;;;;;8.85;4.72;;;9.30;64.90;;;;;;7407081;19;19921;-72
2023/12/25 00:04:04;;;;;;;9.13;4.25;;;9.20;66.00;;;;;;7404699;19;19921;-71
2023/12/25 00:06:30;;;;;;;9.18;4.40;;;9.10;66.20;;;;;;7382571;19;19927;-72
2023/12/25 00:08:56;;;;;;;8.50;4.10;;;9.10;67.00;;;;;;7405820;19;19914;-73
2023/12/25 00:11:22;;;;;;;7.82;3.90;;;9.20;67.00;;;;;;7401599;19;20018;-72
2023/12/25 00:13:51;;;;;;;8.93;4.22;;;9.10;67.20;;;;;;7407240;19;19918;-71
2023/12/25 00:16:16;;;;;;;9.32;3.85;;;9.10;67.70;;;;;;7401316;19;20002;-72
2023/12/25 00:18:43;;;;;;;10.23;4.15;;;9.00;68.30;;;;;;7405654;19;19919;-72
2023/12/25 00:21:08;;;;;;;11.75;3.55;;;9.00;68.30;;;;;;7401749;19;19922;-72
2023/12/25 00:23:35;;;;;;;8.30;4.22;;;9.00;68.10;;;;;;7402912;19;19921;-71
2023/12/25 00:26:00;;;;;;;9.50;4.45;;;9.00;69.10;;;;;;7404357;19;20399;-71
2023/12/25 00:28:26;;;;;;;11.13;4.50;;;8.90;69.40;;;;;;7403584;19;19918;-71
2023/12/25 00:30:52;;;;;;;8.20;4.20;;;8.90;69.20;;;;;;7407371;19;19922;-71
2023/12/25 00:33:18;;;;;;;9.35;3.63;;;9.00;69.70;;;;;;7404023;19;19945;-72
2023/12/25 00:35:44;;;;;;;9.18;4.13;;;9.00;69.20;;;;;;7402261;19;19922;-71
2023/12/25 00:38:09;;;;;;;7.18;3.50;;;8.90;69.20;;;;;;7398967;19;20336;-71
2023/12/25 00:40:35;;;;;;;9.32;4.05;;;8.90;69.50;;;;;;7404891;19;19922;-72
2023/12/25 00:43:01;;;;;;;7.20;3.53;;;8.90;69.60;;;;;;7402114;19;20444;-72
2023/12/25 00:45:26;;;;;;;9.27;3.28;;;8.90;69.60;;;;;;7401717;19;19911;-71
2023/12/25 00:47:52;;;;;;;11.30;3.30;;;8.90;69.40;;;;;;7403564;19;19914;-70
2023/12/25 00:50:18;;;;;;;7.18;3.15;;;8.90;68.60;;;;;;7401849;19;20254;-71
2023/12/25 00:52:44;;;;;;;7.40;3.83;;;8.90;68.50;;;;;;7402220;19;20347;-72
2023/12/25 00:55:10;;;;;;;6.07;3.25;;;8.90;68.40;;;;;;7401863;19;19915;-72
2023/12/25 00:57:35;;;;;;;7.50;4.32;;;8.80;68.40;;;;;;7403261;19;19919;-71
2023/12/25 01:00:01;;;;;;;7.82;4.07;;;8.90;68.10;;;;;;7404695;19;19925;-71
2023/12/25 01:02:27;;;;;;;8.13;3.80;;;8.90;67.70;;;;;;7403111;19;19937;-71
2023/12/25 01:04:52;;;;;;;6.78;3.17;;;8.80;68.10;;;;;;7404944;19;20253;-72
2023/12/25 01:07:18;;;;;;;6.30;3.15;;;9.00;67.60;;;;;;7399360;19;20465;-71
2023/12/25 01:09:44;;;;;;;6.95;3.20;;;8.90;67.10;;;;;;7405217;19;20496;-73
2023/12/25 01:12:10;;;;;;;6.55;3.28;;;8.90;67.80;;;;;;7397061;19;19920;-71
2023/12/25 01:14:35;;;;;;;8.75;5.05;;;8.80;68.20;;;;;;7404700;19;19922;-71
2023/12/25 01:17:01;;;;;;;7.72;3.92;;;8.80;69.30;;;;;;7403633;19;19911;-71
2023/12/25 01:19:27;;;;;;;10.75;5.35;;;8.80;68.90;;;;;;7401500;19;19918;-71
2023/12/25 01:21:53;;;;;;;10.57;4.43;;;8.90;71.30;;;;;;7402291;19;19922;-71
2023/12/25 01:24:18;;;;;;;7.18;3.58;;;8.90;69.90;;;;;;7403030;19;19918;-72
2023/12/25 01:26:44;;;;;;;8.20;3.97;;;9.00;69.50;;;;;;7404189;19;19915;-72
2023/12/25 01:29:10;;;;;;;8.55;4.00;;;8.90;69.10;;;;;;7402453;19;19906;-71
2023/12/25 01:31:36;;;;;;;7.57;3.85;;;8.90;69.30;;;;;;7402624;19;19982;-71
2023/12/25 01:34:02;;;;;;;7.63;3.67;;;8.90;70.30;;;;;;7380500;19;19926;-72
2023/12/25 01:36:27;;;;;;;7.78;3.50;;;8.80;69.90;;;;;;7402040;19;19914;-72
2023/12/25 01:38:55;;;;;;;8.77;3.58;;;8.70;69.80;;;;;;7402390;19;20438;-71
2023/12/25 01:41:21;;;;;;;6.50;3.33;;;8.70;69.80;;;;;;7398157;19;19938;-70
2023/12/25 01:43:46;;;;;;;9.15;4.20;;;8.70;70.30;;;;;;7403909;19;19918;-71
2023/12/25 01:46:13;;;;;;;8.55;3.35;;;8.70;70.30;;;;;;7399667;19;19923;-70
2023/12/25 01:48:41;;;;;;;7.57;3.90;;;8.60;70.10;;;;;;7396927;19;20454;-71
2023/12/25 01:51:07;;;;;;;7.65;3.30;;;8.60;70.70;;;;;;7397485;19;19944;-71
2023/12/25 01:53:34;;;;;;;6.57;3.20;;;8.60;71.10;;;;;;7379645;19;19923;-72
2023/12/25 01:56:00;;;;;;;7.90;3.67;;;8.60;70.40;;;;;;7398928;19;19986;-71
2023/12/25 01:58:25;;;;;;;7.28;3.72;;;8.60;70.90;;;;;;7398645;19;19922;-71
2023/12/25 02:00:51;;;;;;;7.57;3.35;;;8.60;70.60;;;;;;7399647;19;19922;-71
2023/12/25 02:03:17;;;;;;;8.57;3.25;;;8.50;70.70;;;;;;7397725;19;19915;-71
2023/12/25 02:05:43;;;;;;;7.25;3.83;;;8.50;70.60;;;;;;7400302;19;19911;-71
2023/12/25 02:08:13;;;;;;;8.23;3.92;;;8.60;71.90;;;;;;7400000;19;19918;-71
2023/12/25 02:10:39;;;;;;;6.88;3.35;;;8.60;71.80;;;;;;7400573;19;20010;-72
2023/12/25 02:13:05;;;;;;;7.93;3.70;;;8.60;71.30;;;;;;7397672;19;19919;-71
2023/12/25 02:15:31;;;;;;;11.25;4.20;;;8.60;71.50;;;;;;7400494;19;20259;-71
2023/12/25 02:17:57;;;;;;;9.20;3.88;;;8.50;71.30;;;;;;7399697;19;19930;-70
2023/12/25 02:20:24;;;;;;;9.93;4.25;;;8.50;71.90;;;;;;7397889;19;19926;-71
2023/12/25 02:22:53;;;;;;;8.68;4.10;;;8.50;72.40;;;;;;7399939;19;19911;-71
2023/12/25 02:25:32;;;;;;;7.65;3.65;;;8.60;72.80;;;;;;7400006;19;20339;-71
2023/12/25 02:28:01;;;;;;;6.50;3.20;;;8.60;72.20;;;;;;7400973;19;19915;-72
2023/12/25 02:30:28;;;;;;;9.30;3.55;;;8.60;71.40;;;;;;7400070;19;20236;-72
2023/12/25 02:32:54;;;;;;;7.80;3.50;;;8.50;71.20;;;;;;7402445;19;19946;-71
2023/12/25 02:35:20;;;;;;;7.10;3.20;;;8.50;72.00;;;;;;7399390;19;19914;-71
2023/12/25 02:37:46;;;;;;;7.03;2.92;;;8.50;70.70;;;;;;7400603;19;19949;-71
2023/12/25 02:40:12;;;;;;;6.47;3.20;;;8.40;70.70;;;;;;7399878;19;19926;-71
2023/12/25 02:42:37;;;;;;;7.70;4.00;;;8.30;70.70;;;;;;7402590;19;20562;-71
2023/12/25 02:45:04;;;;;;;7.13;2.88;;;8.30;71.40;;;;;;7397854;19;20255;-71
2023/12/25 02:47:31;;;;;;;5.40;2.58;;;8.30;71.40;;;;;;7399741;19;19915;-71
2023/12/25 02:49:56;;;;;;;;;;;8.30;71.30;;;;;;7402607;19;20250;-72
2023/12/25 02:52:22;;;;;;;6.70;3.13;;;8.40;72.30;;;;;;7399031;19;19934;-71
2023/12/25 02:54:48;;;;;;;6.60;2.97;;;8.40;71.60;;;;;;7400753;19;19914;-71
2023/12/25 02:57:13;;;;;;;5.20;2.38;;;8.30;71.40;;;;;;7398518;19;19977;-71
2023/12/25 02:59:39;;;;;;;6.28;2.97;;;8.30;71.60;;;;;;7399370;19;19935;-71
2023/12/25 03:02:05;;;;;;;5.45;2.55;;;8.30;72.00;;;;;;7399922;19;19926;-71
2023/12/25 03:04:31;;;;;;;5.35;2.40;;;8.30;71.30;;;;;;7406728;19;19914;-71
2023/12/25 03:06:57;;;;;;;6.40;2.85;;;8.20;71.80;;;;;;7404712;19;19922;-71
2023/12/25 03:09:22;;;;;;;6.47;2.50;;;8.30;72.60;;;;;;7403930;19;19950;-71
2023/12/25 03:11:48;;;;;;;6.78;2.47;;;8.20;72.20;;;;;;7404226;19;19918;-71
2023/12/25 03:14:14;;;;;;;4.78;2.03;;;8.20;72.00;;;;;;7404992;19;19925;-71
2023/12/25 03:16:40;;;;;;;5.28;2.10;;;8.20;71.60;;;;;;7406828;19;19915;-71
2023/12/25 03:19:06;;;;;;;5.25;2.60;;;8.20;71.30;;;;;;7402550;19;19924;-71
2023/12/25 03:21:32;;;;;;;5.72;2.63;;;8.20;71.40;;;;;;7406188;19;19922;-70
2023/12/25 03:23:57;;;;;;;7.30;2.50;;;8.20;71.50;;;;;;7405863;19;19989;-70
2023/12/25 03:26:23;;;;;;;5.45;2.35;;;8.20;71.30;;;;;;7400681;19;19929;-71
2023/12/25 03:28:49;;;;;;;5.93;2.45;;;8.30;70.80;;;;;;7406266;19;20255;-72
2023/12/25 03:31:15;;;;;;;6.57;2.78;;;8.30;71.00;;;;;;7400329;19;20536;-71
2023/12/25 03:33:40;;;;;;;5.57;2.33;;;8.30;70.70;;;;;;7403473;19;19915;-71
2023/12/25 03:36:08;;;;;;;5.07;2.00;;;8.30;70.10;;;;;;7404239;19;19914;-72
2023/12/25 03:38:33;;;;;;;5.05;1.98;;;8.20;70.10;;;;;;7405034;19;19918;-71
2023/12/25 03:40:59;;;;;;;4.55;2.20;;;8.20;69.80;;;;;;7405517;19;19925;-71
2023/12/25 03:43:25;;;;;;;5.35;2.05;;;8.20;69.30;;;;;;7402889;19;19974;-71
2023/12/25 03:45:51;;;;;;;3.80;1.75;;;8.20;69.40;;;;;;7403747;19;20323;-71
2023/12/25 03:48:17;;;;;;;3.80;1.67;;;8.10;69.70;;;;;;7404116;19;20061;-72
2023/12/25 03:50:43;;;;;;;4.75;2.00;;;8.10;70.60;;;;;;7405280;19;20026;-72
2023/12/25 03:53:08;;;;;;;7.88;2.97;;;8.00;69.90;;;;;;7404640;19;20277;-70
2023/12/25 03:55:36;;;;;;;5.93;2.85;;;7.90;70.30;;;;;;7404442;19;20834;-71
2023/12/25 03:58:03;;;;;;;5.93;2.47;;;8.00;71.70;;;;;;7402995;19;19932;-72
2023/12/25 04:00:29;;;;;;;4.72;2.15;;;8.00;72.00;;;;;;7402405;19;20317;-72
2023/12/25 04:02:56;;;;;;;5.28;2.65;;;7.90;71.00;;;;;;7404757;19;19939;-71
2023/12/25 04:05:22;;;;;;;6.15;2.75;;;8.10;72.50;;;;;;7405180;19;19946;-71
2023/12/25 04:07:48;;;;;;;6.25;3.00;;;8.20;71.60;;;;;;7402723;19;19941;-71
2023/12/25 04:10:14;;;;;;;5.82;3.08;;;8.20;70.50;;;;;;7403597;19;19922;-71
2023/12/25 04:12:40;;;;;;;7.13;3.60;;;8.20;70.90;;;;;;7402456;19;19915;-71
2023/12/25 04:15:06;;;;;;;7.07;3.42;;;8.10;70.90;;;;;;7399865;19;20822;-71
2023/12/25 04:17:32;;;;;;;8.10;3.10;;;8.10;71.50;;;;;;7406372;19;20327;-72
2023/12/25 04:19:58;;;;;;;4.93;2.67;;;8.20;71.50;;;;;;7406299;19;19945;-70
2023/12/25 04:22:23;;;;;;;6.47;2.88;;;8.10;71.50;;;;;;7404048;19;19926;-71
2023/12/25 04:24:49;;;;;;;5.55;2.80;;;8.10;71.70;;;;;;7404045;19;19941;-71
2023/12/25 04:27:15;;;;;;;4.75;2.10;;;8.10;72.00;;;;;;7402652;19;19915;-71
2023/12/25 04:29:40;;;;;;;5.53;2.55;;;8.00;71.60;;;;;;7405498;19;20390;-71
2023/12/25 04:32:06;;;;;;;4.97;2.35;;;8.10;72.80;;;;;;7403474;19;20043;-71
2023/12/25 04:34:32;;;;;;;7.43;3.38;;;8.00;72.00;;;;;;7404386;19;19945;-72
2023/12/25 04:36:58;;;;;;;6.95;2.80;;;8.10;72.70;;;;;;7404676;19;19926;-71
2023/12/25 04:39:23;;;;;;;7.18;3.38;;;8.00;72.10;;;;;;7400821;19;19994;-71
2023/12/25 04:41:49;;;;;;;6.75;3.35;;;8.00;72.30;;;;;;7403807;19;19914;-70
2023/12/25 04:44:15;;;;;;;8.10;3.10;;;8.00;72.30;;;;;;7401981;19;19946;-71
2023/12/25 04:46:41;;;;;;;6.97;3.58;;;8.00;72.50;;;;;;7403830;19;19982;-70
2023/12/25 04:49:07;;;;;;;6.35;3.15;;;7.90;72.60;;;;;;7401544;19;19911;-72
2023/12/25 04:51:33;;;;;;;5.53;2.53;;;8.00;72.90;;;;;;7403363;19;20438;-72
2023/12/25 04:53:59;;;;;;;9.63;3.47;;;7.90;72.80;;;;;;7405168;19;19947;-71
2023/12/25 04:56:24;;;;;;;6.90;2.95;;;7.90;73.10;;;;;;7402545;19;20326;-72
2023/12/25 04:58:52;;;;;;;6.50;3.45;;;7.90;72.30;;;;;;7402049;19;19921;-71
2023/12/25 05:01:18;;;;;;;6.70;3.55;;;7.80;72.50;;;;;;7401118;19;19937;-71
2023/12/25 05:03:45;;;;;;;6.97;3.80;;;7.80;72.40;;;;;;7404519;19;19922;-75
2023/12/25 05:06:12;;;;;;;;;;;7.80;72.20;;;;;;7385091;19;19927;-71
2023/12/25 05:08:39;;;;;;;7.75;3.70;;;7.80;72.50;;;;;;7402197;19;19998;-72
2023/12/25 05:11:05;;;;;;;;;;;7.80;72.80;;;;;;7404914;19;19910;-72
2023/12/25 05:13:31;;;;;;;6.95;3.60;;;7.80;72.90;;;;;;7404251;19;20349;-71
2023/12/25 05:15:56;;;;;;;8.18;3.47;;;7.80;72.70;;;;;;7380212;19;19914;-71
2023/12/25 05:18:22;;;;;;;10.38;3.55;;;7.80;72.70;;;;;;7399228;19;19941;-70
2023/12/25 05:20:48;;;;;;;8.90;4.65;;;7.80;72.40;;;;;;7400990;19;19918;-72
2023/12/25 05:23:14;;;;;;;7.70;4.30;;;7.90;72.30;;;;;;7400816;19;20337;-71
2023/12/25 05:25:39;;;;;;;7.82;4.00;;;7.90;72.00;;;;;;7397959;19;19922;-70
2023/12/25 05:28:05;;;;;;;7.32;3.50;;;7.90;71.90;;;;;;7399211;19;20018;-74
2023/12/25 05:30:31;;;;;;;6.40;3.33;;;7.90;71.20;;;;;;7400504;19;19918;-72
2023/12/25 05:32:57;;;;;;;6.82;3.50;;;7.90;69.70;;;;;;7401862;19;19934;-72
2023/12/25 05:35:23;;;;;;;6.82;3.33;;;7.80;69.30;;;;;;7397549;19;19923;-71
2023/12/25 05:37:49;;;;;;;7.50;3.53;;;7.90;69.00;;;;;;7400988;19;19919;-71
2023/12/25 05:40:15;;;;;;;6.47;2.97;;;8.00;68.60;;;;;;7399848;19;19923;-70
2023/12/25 05:42:41;;;;;;;6.57;2.72;;;8.00;68.00;;;;;;7401314;19;19951;-71
2023/12/25 05:45:08;;;;;;;5.95;3.10;;;8.00;66.70;;;;;;7399001;19;19915;-71
2023/12/25 05:47:34;;;;;;;6.07;2.88;;;8.00;65.90;;;;;;7404154;19;19922;-71
2023/12/25 05:50:00;;;;;;;6.15;3.08;;;8.00;64.70;;;;;;7401147;19;19918;-71
2023/12/25 05:52:25;;;;;;;6.47;2.90;;;7.90;63.70;;;;;;7401581;19;20235;-71
2023/12/25 05:54:51;;;;;;;6.22;2.50;;;8.00;63.20;;;;;;7379573;19;19934;-71
2023/12/25 05:57:17;;;;;;;6.00;2.90;;;8.00;61.80;;;;;;7399772;19;20006;-72
2023/12/25 05:59:43;;;;;;;6.18;3.40;;;8.10;60.10;;;;;;7404220;19;19926;-72
2023/12/25 06:02:11;;;;;;;6.32;2.50;;;8.10;59.30;;;;;;7399643;19;19921;-71
2023/12/25 06:04:37;;;;;;;6.50;2.60;;;8.10;58.30;;;;;;7399523;19;19918;-71
2023/12/25 06:07:03;;;;;;;5.60;2.65;;;8.10;56.80;;;;;;7399308;19;19919;-71
2023/12/25 06:09:29;;;;;;;4.68;2.30;;;8.20;55.20;;;;;;7399459;19;19918;-71
2023/12/25 06:11:55;;;;;;;4.47;2.10;;;8.10;54.80;;;;;;7400909;19;20334;-71
2023/12/25 06:14:21;;;;;;;4.85;2.38;;;8.10;54.20;;;;;;7396441;19;20255;-71
2023/12/25 06:16:47;;;;;;;5.32;2.30;;;8.00;54.60;;;;;;7400352;19;19915;-71
2023/12/25 06:19:12;;;;;;;6.18;3.00;;;7.90;54.70;;;;;;7398130;19;19926;-72
2023/12/25 06:21:38;;;;;;;7.00;3.28;;;7.90;56.20;;;;;;7398826;19;19979;-71
2023/12/25 06:24:05;;;;;;;7.28;2.97;;;8.00;57.40;;;;;;7400725;19;19933;-71
2023/12/25 06:26:31;;;;;;;8.00;3.35;;;8.00;57.80;;;;;;7400944;19;19911;-73
2023/12/25 06:28:57;;;;;;;7.65;2.70;;;8.10;56.30;;;;;;7401471;19;19921;-71
2023/12/25 06:31:22;;;;;;;5.57;2.58;;;8.30;54.70;;;;;;7399533;19;19930;-71
2023/12/25 06:33:48;;;;;;;5.07;2.33;;;8.30;52.80;;;;;;7402729;19;19947;-71
2023/12/25 06:36:14;;;;;;;5.60;1.83;;;8.50;50.10;;;;;;7397262;19;19934;-71
2023/12/25 06:38:39;;;;;;;4.68;1.95;;;8.60;47.90;;;;;;7403573;19;19949;-72
2023/12/25 06:41:05;;;;;;;4.75;1.92;;;8.60;46.70;;;;;;7398680;19;19923;-71
2023/12/25 06:43:31;;;;;;;5.90;2.55;;;8.50;46.50;;;;;;7399578;19;19921;-71
2023/12/25 06:45:56;;;;;;;4.63;1.98;;;8.50;46.00;;;;;;7399512;19;19915;-71
2023/12/25 06:48:22;;;;;;;5.00;1.98;;;8.40;46.40;;;;;;7398660;19;19961;-71
2023/12/25 06:50:48;;;;;;;5.53;2.17;;;8.50;46.50;;;;;;7399606;19;19930;-71
2023/12/25 06:53:14;;;;;;;5.18;2.50;;;8.50;46.50;;;;;;7399826;19;19918;-71
2023/12/25 06:55:40;;;;;;;5.05;2.10;;;8.50;46.40;;;;;;7397815;19;19911;-71
2023/12/25 06:58:05;;;;;;;5.22;2.35;;;8.50;45.70;;;;;;7397530;19;19933;-70
2023/12/25 07:00:31;;;;;;;5.70;2.15;;;8.60;45.70;;;;;;7398121;19;19926;-71
2023/12/25 07:02:57;;;;;;;4.68;2.20;;;8.70;45.10;;;;;;7400957;19;19937;-72
2023/12/25 07:05:23;;;;;;;5.93;2.05;;;8.80;44.50;;;;;;7398558;19;19943;-71
2023/12/25 07:07:48;;;;;;;5.43;2.38;;;8.80;44.10;;;;;;7397739;19;19922;-71
2023/12/25 07:10:14;;;;;;;5.13;1.90;;;8.90;43.50;;;;;;7401744;19;19918;-71
2023/12/25 07:12:40;;;;;;;5.43;2.20;;;8.80;43.90;;;;;;7398478;19;19922;-72
2023/12/25 07:15:06;;;;;;;5.20;2.10;;;8.70;44.10;;;;;;7377198;19;19922;-71
2023/12/25 07:17:32;;;;;;;6.35;2.13;;;8.70;44.60;;;;;;7398175;19;19923;-71
2023/12/25 07:19:58;;;;;;;5.20;1.95;;;8.70;44.90;;;;;;7396543;19;20525;-71
2023/12/25 07:22:24;;;;;;;4.65;2.10;;;8.70;44.90;;;;;;7394898;19;19929;-70
2023/12/25 07:24:50;;;;;;;5.72;2.50;;;8.60;45.10;;;;;;7399307;19;19918;-71
2023/12/25 07:27:16;;;;;;;5.10;2.47;;;8.60;45.80;;;;;;7399206;19;19986;-71
2023/12/25 07:29:42;;;;;;;5.28;2.20;;;8.50;46.20;;;;;;7396560;19;19956;-71
2023/12/25 07:32:08;;;;;;;4.43;1.95;;;8.50;46.30;;;;;;7396916;19;20234;-71
2023/12/25 07:34:34;;;;;;;4.70;2.00;;;8.50;46.50;;;;;;7398532;19;19926;-71
2023/12/25 07:37:01;;;;;;;5.40;2.33;;;8.70;45.70;;;;;;7397951;19;19942;-71
2023/12/25 07:39:27;;;;;;;5.05;1.98;;;8.90;45.00;;;;;;7396523;19;19923;-71
2023/12/25 07:41:55;;;;;;;5.35;2.20;;;8.90;45.20;;;;;;7396503;19;19929;-72
2023/12/25 07:44:21;;;;;;;6.93;2.60;;;8.90;45.10;;;;;;7396916;19;19929;-71
2023/12/25 07:46:47;;;;;;;4.88;2.30;;;8.80;45.60;;;;;;7396341;19;19926;-71
2023/12/25 07:49:13;;;;;;;5.65;2.70;;;8.90;45.70;;;;;;7397092;19;19926;-70
2023/12/25 07:51:39;;;;;;;6.45;2.65;;;9.00;45.50;;;;;;7405478;19;19997;-71
2023/12/25 07:54:05;;;;;;;6.05;2.53;;;9.10;46.60;;;;;;7402876;19;19919;-72
2023/12/25 07:56:30;;;;;;;6.95;3.00;;;9.10;45.60;;;;;;7404188;19;19914;-72
2023/12/25 07:58:57;;;;;;;4.97;2.50;;;9.10;45.50;;;;;;7405385;19;20342;-71
2023/12/25 08:01:23;;;;;;;6.53;2.88;;;9.20;46.20;;;;;;7396397;19;20319;-71
2023/12/25 08:03:53;;;;;;;6.30;2.65;;;9.20;45.90;;;;;;7403141;19;19911;-71
2023/12/25 08:06:19;;;;;;;6.55;2.97;;;9.30;45.90;;;;;;7404716;19;20014;-71
2023/12/25 08:08:47;;;;;;;7.15;3.88;;;9.40;46.10;;;;;;7405094;19;20402;-72
2023/12/25 08:11:14;;;;;;;7.15;3.63;;;9.40;48.80;;;;;;7404163;19;19978;-71
2023/12/25 08:13:40;;;;;;;7.85;4.38;;;9.40;49.40;;;;;;7404581;19;19929;-71
2023/12/25 08:16:06;;;;;;;7.78;4.22;;;9.80;51.30;;;;;;7403231;19;19925;-71
2023/12/25 08:18:32;;;;;;;10.93;4.18;;;11.60;44.60;;;;;;7402187;19;19935;-74
2023/12/25 08:20:59;;;;;;;9.18;4.80;;;12.90;40.20;;;;;;7406073;19;19915;-71
2023/12/25 08:23:24;;;;;;;9.05;4.65;;;13.90;34.60;;;;;;7402105;19;19923;-70
2023/12/25 08:25:50;;;;;;;6.38;3.80;;;14.60;28.50;;;;;;7403387;19;19929;-71
2023/12/25 08:28:16;;;;;;;7.97;4.78;;;15.20;26.50;;;;;;7400043;19;19922;-71
2023/12/25 08:30:43;;;;;;;8.73;4.63;;;15.40;25.00;;;;;;7402066;19;19934;-72
2023/12/25 08:33:08;;;;;;;;;;;15.70;23.30;;;;;;7403313;19;19938;-71
2023/12/25 08:35:34;;;;;;;8.55;4.25;;;15.60;22.50;;;;;;7404669;19;19922;-72
2023/12/25 08:38:00;;;;;;;8.18;4.20;;;16.00;21.60;;;;;;7399151;19;19922;-72
2023/12/25 08:40:28;;;;;;;8.30;4.78;;;16.50;20.60;;;;;;7402377;19;19930;-72
2023/12/25 08:42:53;;;;;;;6.63;4.10;;;16.60;18.60;;;;;;7405577;19;19915;-71
2023/12/25 08:45:19;;;;;;;7.88;4.60;;;16.50;16.40;;;;;;7405253;19;19926;-71
2023/12/25 08:47:45;;;;;;;7.30;4.47;;;16.70;17.20;;;;;;7403383;19;19918;-71
2023/12/25 08:50:11;;;;;;;8.23;5.57;;;16.40;16.40;;;;;;7405007;19;20261;-71
2023/12/25 08:52:38;;;;;;;8.40;4.95;;;15.40;17.40;;;;;;7405812;19;20351;-71
2023/12/25 08:55:04;;;;;;;11.70;6.30;;;14.80;19.00;;;;;;7400893;19;19923;-71
2023/12/25 08:57:35;;;;;;;8.80;5.97;;;14.10;20.60;;;;;;7410894;19;19974;-71
2023/12/25 09:00:03;;;;;;;9.40;6.03;;;13.80;21.70;;;;;;7407960;19;19927;-72
2023/12/25 09:02:28;;;;;;;9.18;5.57;;;13.50;23.70;;;;;;7405673;19;19914;-72
2023/12/25 09:04:54;;;;;;;9.32;5.63;;;13.20;25.20;;;;;;7404417;19;19922;-71
2023/12/25 09:07:20;;;;;;;8.40;5.43;;;13.20;25.50;;;;;;7402138;19;19937;-71
2023/12/25 09:09:46;;;;;;;8.57;5.43;;;13.20;25.30;;;;;;7405168;19;19941;-71
2023/12/25 09:12:12;;;;;;;8.98;5.57;;;13.10;25.00;;;;;;7401995;19;20628;-70
2023/12/25 09:14:37;;;;;;;9.07;5.53;;;13.00;25.30;;;;;;7401392;19;19963;-72
2023/12/25 09:17:03;;;;;;;11.23;5.82;;;13.10;25.00;;;;;;7379577;19;19910;-72
2023/12/25 09:19:30;;;;;;;10.90;5.65;;;13.10;25.30;;;;;;7401771;19;19970;-72
2023/12/25 09:21:56;;;;;;;;;;;13.20;25.00;;;;;;7402984;19;19943;-72
2023/12/25 09:24:22;;;;;;;8.15;6.30;;;13.30;24.80;;;;;;7402845;19;21387;-70
2023/12/25 09:26:48;;;;;;;8.85;5.63;;;13.60;24.10;;;;;;7404951;19;19918;-70
2023/12/25 09:29:14;;;;;;;9.55;6.05;;;14.00;22.80;;;;;;7400157;19;19915;-71
2023/12/25 09:31:40;;;;;;;10.68;6.35;;;14.50;21.50;;;;;;7403317;19;19936;-70
2023/12/25 09:34:06;;;;;;;10.02;6.28;;;14.80;19.60;;;;;;7398469;19;20290;-71
2023/12/25 09:36:32;;;;;;;8.82;5.75;;;15.30;18.80;;;;;;7401650;19;19918;-73
2023/12/25 09:38:57;;;;;;;9.23;5.60;;;15.50;17.30;;;;;;7400864;19;19927;-72
2023/12/25 09:41:24;;;;;;;8.98;6.15;;;15.70;16.70;;;;;;7401084;19;19922;-73
2023/12/25 09:43:58;;;;;;;9.93;7.43;;;15.80;16.60;;;;;;7400023;19;20557;-71
2023/12/25 09:46:27;;;;;;;8.57;5.63;;;16.00;15.60;;;;;;7380269;19;19922;-72
2023/12/25 09:48:55;;;;;;;9.50;5.63;;;16.40;14.30;;;;;;7403220;19;19994;-71
2023/12/25 09:51:22;;;;;;;8.65;5.72;;;16.50;13.30;;;;;;7404819;19;19918;-72
2023/12/25 09:53:48;;;;;;;9.35;6.80;;;16.60;12.50;;;;;;7405449;19;19922;-72
2023/12/25 09:56:16;;;;;;;10.18;6.18;;;16.80;12.00;;;;;;7401887;19;19918;-71
2023/12/25 09:58:44;;;;;;;9.75;6.75;;;17.00;11.50;;;;;;7402623;19;20029;-71
2023/12/25 10:01:12;;;;;;;8.90;6.32;;;17.10;11.10;;;;;;7401523;19;20327;-73
2023/12/25 10:03:41;;;;;;;10.27;6.40;;;17.20;10.30;;;;;;7404488;19;19914;-71
2023/12/25 10:06:07;;;;;;;9.00;6.28;;;17.10;10.50;;;;;;7401688;19;19922;-73
2023/12/25 10:08:39;;;;;;;8.93;6.38;;;17.10;9.30;;;;;;7400739;19;19923;-72
2023/12/25 10:11:08;;;;;;;8.45;6.13;;;17.20;9.30;;;;;;7398863;19;20288;-72
2023/12/25 10:13:35;;;;;;;8.80;6.30;;;17.20;8.90;;;;;;7403216;19;19919;-71
2023/12/25 10:16:06;;;;;;;10.52;6.93;;;17.20;9.00;;;;;;7398212;19;19960;-72
2023/12/25 10:18:33;;;;;;;11.00;7.10;;;17.60;7.90;;;;;;7401531;19;19914;-73
2023/12/25 10:21:00;;;;;;;9.60;6.68;;;17.80;7.90;;;;;;7400119;19;19919;-71
2023/12/25 10:23:29;;;;;;;12.02;8.07;;;17.90;7.60;;;;;;7397047;19;19921;-72
2023/12/25 10:25:58;;;;;;;9.73;6.82;;;17.90;7.50;;;;;;7401578;19;19911;-71
2023/12/25 10:28:28;;;;;;;10.73;7.10;;;17.90;7.70;;;;;;7398377;19;19910;-72
2023/12/25 10:31:04;;;;;;;10.18;7.13;;;17.80;7.00;;;;;;7402824;19;20328;-72
2023/12/25 10:33:31;;;;;;;11.57;7.65;;;17.90;6.60;;;;;;7399139;19;19950;-71
2023/12/25 10:36:10;;;;;;;9.75;7.55;;;18.40;6.40;;;;;;7398323;19;19918;-72
2023/12/25 10:38:40;;;;;;;9.98;7.05;;;18.50;6.60;;;;;;7395963;19;19919;-70
2023/12/25 10:41:33;;;;;;;11.70;7.55;;;18.20;5.60;;;;;;7398052;19;20562;-72
2023/12/25 10:44:03;;;;;;;10.25;6.63;;;17.90;5.60;;;;;;7400656;19;19918;-72
2023/12/25 10:46:36;;;;;;;10.35;7.03;;;18.10;5.50;;;;;;7397545;19;19935;-71
2023/12/25 10:49:04;;;;;;;10.20;6.85;;;18.60;4.50;;;;;;7400999;19;19914;-71
2023/12/25 10:51:40;;;;;;;10.63;7.38;;;18.20;5.30;;;;;;7395018;19;20385;-72
2023/12/25 10:54:10;;;;;;;11.98;7.97;;;18.60;5.40;;;;;;7395006;19;19922;-72
2023/12/25 10:56:39;;;;;;;9.50;7.50;;;19.10;5.00;;;;;;7399601;19;19926;-71
2023/12/25 10:59:24;;;;;;;11.20;6.93;;;19.70;3.20;;;;;;7397602;19;19922;-71
2023/12/25 11:01:52;;;;;;;12.18;7.03;;;19.70;2.70;;;;;;7402642;19;19922;-72
2023/12/25 11:04:20;;;;;;;10.95;7.28;;;20.20;2.00;;;;;;7396001;19;20290;-71
2023/12/25 11:06:47;;;;;;;14.65;7.22;;;19.80;1.10;;;;;;7397765;19;19982;-70
2023/12/25 11:09:17;;;;;;;9.80;6.60;;;19.40;1.00;;;;;;7398241;19;20387;-72
2023/12/25 11:11:44;;;;;;;8.77;5.80;;;18.60;1.30;;;;;;7398370;19;19918;-71
2023/12/25 11:14:11;;;;;;;8.65;6.25;;;20.00;1.10;;;;;;7398102;19;19918;-72
2023/12/25 11:16:37;;;;;;;10.27;6.00;;;20.20;1.00;;;;;;7398935;19;19919;-72
2023/12/25 11:19:04;;;;;;;8.90;5.47;;;20.30;1.00;;;;;;7395310;19;19918;-72
2023/12/25 11:21:32;;;;;;;9.15;6.07;;;20.10;1.00;;;;;;7399873;19;20323;-71
2023/12/25 11:24:00;;;;;;;7.82;5.13;;;19.80;1.00;;;;;;7378818;19;19919;-72
2023/12/25 11:26:29;;;;;;;8.90;5.95;;;20.20;1.00;;;;;;7402450;19;20268;-71
2023/12/25 11:29:03;;;;;;;8.93;5.18;;;21.20;1.00;;;;;;7401961;19;19911;-72
2023/12/25 11:31:39;;;;;;;8.30;5.20;;;20.60;1.00;;;;;;7403439;19;19978;-71
2023/12/25 11:34:19;;;;;;;7.07;5.07;;;21.10;1.00;;;;;;7404102;19;19919;-71
2023/12/25 11:36:45;;;;;;;8.60;5.15;;;21.50;1.00;;;;;;7405242;19;19949;-72
2023/12/25 11:39:12;;;;;;;8.75;4.85;;;22.10;1.00;;;;;;7402812;19;20043;-71
2023/12/25 11:41:37;;;;;;;11.35;5.68;;;22.00;1.00;;;;;;7402539;19;19918;-71
2023/12/25 11:44:07;;;;;;;10.23;5.50;;;22.30;1.00;;;;;;7404723;19;19926;-71
2023/12/25 11:46:37;;;;;;;9.80;5.68;;;22.70;1.00;;;;;;7405560;19;19915;-72
2023/12/25 11:49:05;;;;;;;11.80;6.97;;;23.40;1.00;;;;;;7404835;19;20311;-72
2023/12/25 11:51:32;;;;;;;6.85;5.20;;;23.50;1.00;;;;;;7407987;19;19918;-71
2023/12/25 11:53:59;;;;;;;8.35;5.70;;;23.30;1.00;;;;;;7402586;19;19922;-73
2023/12/25 11:56:27;;;;;;;8.00;5.32;;;23.20;1.00;;;;;;7402353;19;19949;-72
2023/12/25 11:58:53;;;;;;;7.45;5.38;;;23.70;1.00;;;;;;7404455;19;19918;-73
2023/12/25 12:01:19;;;;;;;7.50;5.40;;;23.60;1.00;;;;;;7403818;19;19986;-71
2023/12/25 12:03:47;;;;;;;8.45;6.88;;;23.40;1.00;;;;;;7407470;19;20961;-70
2023/12/25 12:06:14;;;;;;;9.15;6.20;;;23.30;1.00;;;;;;7403844;19;20015;-71
2023/12/25 12:08:41;;;;;;;8.20;5.90;;;23.60;1.00;;;;;;7403611;19;20267;-72
2023/12/25 12:11:11;;;;;;;8.02;5.25;;;23.80;1.00;;;;;;7405573;19;20396;-72
2023/12/25 12:13:37;;;;;;;10.05;6.30;;;24.10;1.00;;;;;;7404325;19;19935;-71
2023/12/25 12:16:05;;;;;;;9.32;6.20;;;24.50;1.00;;;;;;7401277;19;19918;-72
2023/12/25 12:18:31;;;;;;;8.73;5.85;;;24.10;1.00;;;;;;7405659;19;20261;-71
2023/12/25 12:20:57;;;;;;;10.50;6.57;;;24.40;1.00;;;;;;7405525;19;19914;-72
2023/12/25 12:23:26;;;;;;;8.77;6.15;;;25.00;1.00;;;;;;7403221;19;20007;-72
2023/12/25 12:25:51;;;;;;;9.35;6.07;;;25.20;1.00;;;;;;7405154;19;19922;-71
2023/12/25 12:28:18;;;;;;;9.73;6.45;;;25.00;1.00;;;;;;7402499;19;20326;-72
2023/12/25 12:30:43;;;;;;;8.85;5.72;;;25.00;1.00;;;;;;7404634;19;19969;-72
2023/12/25 12:33:10;;;;;;;10.80;6.13;;;24.30;1.00;;;;;;7403502;19;20400;-71
2023/12/25 12:35:36;;;;;;;8.68;5.60;;;25.20;1.00;;;;;;7401755;19;19919;-71
2023/12/25 12:38:03;;;;;;;;;;;25.00;1.00;;;;;;7405615;19;19989;-72
2023/12/25 12:40:29;;;;;;;8.02;5.22;;;25.20;1.00;;;;;;7405743;19;19919;-71
2023/12/25 12:42:55;;;;;;;9.15;5.65;;;26.00;1.00;;;;;;7405157;19;19918;-72
2023/12/25 12:45:22;;;;;;;10.43;6.00;;;25.90;1.00;;;;;;7403814;19;19926;-72
2023/12/25 12:47:52;;;;;;;8.40;5.45;;;26.20;1.00;;;;;;7401807;19;21070;-72
2023/12/25 12:50:19;;;;;;;7.75;5.25;;;26.10;1.00;;;;;;7400178;19;19911;-72
2023/12/25 12:52:46;;;;;;;10.13;5.80;;;25.80;1.00;;;;;;7403956;19;20270;-71